Aérodrome :
LOGIN :

S'inscrire | Disclaimer

   EN    FR    IT 

 










Légende :    VFR   VFR Marginal   IFR   IFR Intensif   IFR Très Intensif
Visi : 
Plafond : 
>= 8 km
>= 3000ft
5 à 8 km
1000 à 3000 ft
1500m à 5 km
500 à 1000 ft
800 à 1500m
200 à 500 ft
< 800m
< 200 ft
Symboles :   Orages  Brouillard  Fortes neiges  Fortes précipitations  Vent > 20 kt
SIGMETs :   Divers  Orages  Givrage  Turbulence  Onde Orograph.  Cendres Volcan.






- Altitude de l'aérodrome : 19 ft
- Code IATA : BEB


EGPL - Benbecula

DERNIER METAR :
  • 210320Z AUTO 22037G47KT 4200 RA SCT006/// BKN012/// BKN020/// 08/06 Q0993

METARs EXPIRÉS :
  • 210250Z AUTO 22037G53KT 4300 RA FEW005/// BKN013/// OVC036/// 08/06 Q0994
  • 210220Z AUTO 21032G44KT 6000 -RA FEW013/// BKN018/// BKN028/// 08/06 Q0995
  • 210150Z AUTO 22032G43KT 7000 -RA BKN019/// BKN024/// OVC039/// 08/05 Q0996
  • 210120Z AUTO 22029G39KT 9999 -RA SCT024/// BKN028/// OVC042/// 08/05 Q0996
  • 210050Z AUTO 22030G43KT 9999 -RA SCT023/// BKN028/// OVC035/// 08/04 Q0997

TAF TAF EGPL
Valide du 21 à 03h jusqu'au 21 à 12h UTC


210157Z 2103/2112 22030G42KT 9999 SCT020
TEMPO 2103/2108 22038G55KT 6000 RA SHRA BKN012
PROB40
TEMPO 2103/2108 3000 RADZ BKN006
BECMG 2108/2111 26022G35KT
TEMPO 2108/2112 26028G48KT 6000 SHRA BKN014
ATIS : +44 1870 604 818



MET'MAP, la Météo Aéronautique d'un coup d'oeil ! - Copyright ORBIFLY Décembre 2007 - Disclaimer

ORBIFLY MET'MAP TEAM :

Programmation & Développement : Alexandra Zaïnal
Sur une idée originale de : Baudouin d'Aumeries
Assistance à la programmation : Marc-Olivier Méhu
Soutien technique & logistique : Manuel Goepfert

Contact : metmap@orbifly.com




SOURCES & CREDITS :

   NOAA